Hovedside
METAR-TAF:

METAR-TAF

Lufthavner :

Karachi, Pakistan

Jinnah internasjonale lufthavn

breddegrad: 24-54N, lengdegrad: 067-08E, høyde over havet: 21 m

Gjeldene værobservasjon

Denne rapporten ble laget for 30 minutter siden, klokken 19:00 UTC
Vind 5 kt fra Nord
Temperatur
Trykk 1018 hPa
Sikt: 6000 m

METAR: OPKC 191900Z 35005KT 6000 NSC 17 /00 Q1018 NOSIG

Tid: 00:30 (19:30 UTC)

Varsel

Denne rapporten ble laget for 3 timer og 30 minutter siden, klokken 16:00 UTC
Varsel gyldig fra 19. klokken 18 UTC til 20. klokken 24 UTC
Vind 7 kt fra Vest
Sikt: 4000 m
dis
Midlertidig
fra 20. klokken 01 UTC til 20. klokken 05 UTC
Vind 5 kt fra Nord-nordøst
Sikt: 2000 m
røyk
Blir
fra 20. klokken 07 UTC til 20. klokken 09 UTC
Vind 10 kt fra Vest-sørvest
Sikt: 6000 m
Fra 20. klokken 1700 UTC
Vind 7 kt fra Vest-nordvest
Sikt: 4000 m
dis

TAF: OPKC 191600Z 1918/2024 26007KT 4000 HZ NSC TEMPO 2001/2005 03005KT 2000 FU NSC BECMG 2007/2009 25010KT 6000 NSC FM201700 29007KT 4000 HZ NSC

Værobservasjoner og værvarsel for over 4000 flyplasser (METAR- og TAF-rapporter).

Tilgjengelige stasjoner er representert av de røde og gule prikkene på kartet.

Hold musepekeren over prikken for å se navnet på stasjonen.

Klikk så for å se værobservasjoner og -varsler.

For å forandre kartet kan du klikke på den grønne knappen med svart kryss for å zoome inn, på den grønne knappen med strek for å zoome ut, eller på de grønne pilene for å se tilstøtende kart.


METAR-TAF: